createdAt,value
2022-09-01T00:00:01.792Z,95858.59
2022-09-01T00:02:28.858Z,95852.34
2022-09-01T00:04:55.343Z,95857.09
2022-09-01T00:07:21.919Z,95855.47
2022-09-01T00:09:48.307Z,95853.53
2022-09-01T00:12:14.707Z,95854.69
2022-09-01T00:14:41.728Z,95853.81
2022-09-01T00:17:08.162Z,95843.81
2022-09-01T00:19:34.550Z,95853.91
2022-09-01T00:22:01.052Z,95846.78
2022-09-01T00:24:27.467Z,95837.28
2022-09-01T00:26:53.871Z,95834.84
2022-09-01T00:29:20.563Z,95839.47
2022-09-01T00:31:47.001Z,95839.59
2022-09-01T00:34:13.388Z,95844.25
2022-09-01T00:36:39.797Z,95844.97
2022-09-01T00:39:06.188Z,95844.25
2022-09-01T00:41:32.572Z,95851.59
2022-09-01T00:43:59.033Z,95843.81
2022-09-01T00:46:28.873Z,95841.22
2022-09-01T00:48:55.665Z,95842.75
2022-09-01T00:51:22.123Z,95838.88
2022-09-01T00:53:48.509Z,95848.44
2022-09-01T00:56:14.907Z,95846.41
2022-09-01T00:58:41.344Z,95849.28
2022-09-01T01:01:07.829Z,95848.91
2022-09-01T01:03:34.278Z,95844.69
2022-09-01T01:06:00.756Z,95845.25
2022-09-01T01:08:27.136Z,95839.69
2022-09-01T01:10:53.551Z,95842.84
2022-09-01T01:13:19.982Z,95847.94
2022-09-01T01:15:46.368Z,95846.53
2022-09-01T01:18:12.774Z,95848.19
2022-09-01T01:20:39.267Z,95849.09
2022-09-01T01:23:05.904Z,95854.47
2022-09-01T01:25:32.356Z,95858.03
2022-09-01T01:27:58.909Z,95853.84
2022-09-01T01:30:25.297Z,95858.22
2022-09-01T01:32:51.676Z,95858.44
2022-09-01T01:35:18.219Z,95861.16
2022-09-01T01:37:44.602Z,95862.19
2022-09-01T01:40:11.077Z,95873.41
2022-09-01T01:42:37.649Z,95870.03
2022-09-01T01:45:04.035Z,95870.50
2022-09-01T01:47:30.430Z,95863.59
2022-09-01T01:49:57.012Z,95868.22
2022-09-01T01:52:26.189Z,95868.38
2022-09-01T01:54:53.344Z,95862.22
2022-09-01T01:57:19.774Z,95862.22
2022-09-01T01:59:46.159Z,95860.72
2022-09-01T02:02:12.625Z,95873.09
2022-09-01T02:04:39.180Z,95880.81
2022-09-01T02:07:05.610Z,95868.94
2022-09-01T02:09:31.993Z,95875.81
2022-09-01T02:11:58.507Z,95870.56
2022-09-01T02:14:30.350Z,95871.44
2022-09-01T02:16:56.792Z,95869.16
2022-09-01T02:19:23.312Z,95864.53
2022-09-01T02:21:49.717Z,95870.38
2022-09-01T02:24:16.096Z,95867.38
2022-09-01T02:26:42.625Z,95867.38
2022-09-01T02:29:09.013Z,95869.00
2022-09-01T02:31:35.413Z,95874.38
2022-09-01T02:34:01.930Z,95867.50
2022-09-01T02:36:28.320Z,95872.44
2022-09-01T02:38:56.395Z,95875.88
2022-09-01T02:41:23.342Z,95880.13
2022-09-01T02:43:49.710Z,95870.19
2022-09-01T02:46:16.157Z,95868.38
2022-09-01T02:48:43.626Z,95878.81
2022-09-01T02:51:10.064Z,95880.44
2022-09-01T02:53:36.443Z,95882.69
2022-09-01T02:56:02.935Z,95881.63
2022-09-01T02:58:29.297Z,95879.38
2022-09-01T03:00:55.740Z,95876.69
2022-09-01T03:03:22.183Z,95871.00
2022-09-01T03:05:48.540Z,95877.56
2022-09-01T03:08:14.931Z,95872.50
2022-09-01T03:10:41.373Z,95876.75
2022-09-01T03:13:07.740Z,95876.19
2022-09-01T03:15:34.130Z,95876.69
2022-09-01T03:18:00.574Z,95864.41
2022-09-01T03:20:27.014Z,95874.25
2022-09-01T03:22:53.381Z,95869.28
2022-09-01T03:25:19.847Z,95867.66
2022-09-01T03:27:46.198Z,95869.75
2022-09-01T03:30:12.580Z,95873.19
2022-09-01T03:32:39.056Z,95877.81
2022-09-01T03:35:05.451Z,95875.13
2022-09-01T03:37:31.817Z,95873.59
2022-09-01T03:39:58.228Z,95873.59
2022-09-01T03:42:25.667Z,95875.31
2022-09-01T03:44:52.022Z,95864.69
2022-09-01T03:47:18.478Z,95869.19
2022-09-01T03:49:44.838Z,95873.59
2022-09-01T03:52:11.213Z,95862.53
2022-09-01T03:54:40.042Z,95866.06
2022-09-01T03:57:06.402Z,95859.22
2022-09-01T03:59:32.797Z,95861.56
2022-09-01T04:01:59.255Z,95863.38
2022-09-01T04:04:25.705Z,95859.63
2022-09-01T04:06:52.101Z,95860.06
2022-09-01T04:09:18.556Z,95857.69
2022-09-01T04:11:46.046Z,95861.56
2022-09-01T04:14:12.564Z,95864.47
2022-09-01T04:16:39.077Z,95857.19
2022-09-01T04:19:05.515Z,95858.69
2022-09-01T04:21:31.883Z,95863.94
2022-09-01T04:23:58.353Z,95865.88
2022-09-01T04:26:24.736Z,95864.81
2022-09-01T04:28:51.139Z,95869.00
2022-09-01T04:31:17.700Z,95873.22
2022-09-01T04:33:44.136Z,95866.75
2022-09-01T04:36:10.522Z,95871.38
2022-09-01T04:38:36.972Z,95869.47
2022-09-01T04:41:03.354Z,95866.00
2022-09-01T04:43:29.737Z,95875.16
2022-09-01T04:45:56.267Z,95876.06
2022-09-01T04:48:22.807Z,95867.88
2022-09-01T04:50:49.328Z,95862.56
2022-09-01T04:53:15.734Z,95864.28
2022-09-01T04:55:42.108Z,95865.31
2022-09-01T04:58:10.246Z,95866.47
2022-09-01T05:00:37.018Z,95864.66
2022-09-01T05:03:03.494Z,95862.41
2022-09-01T05:05:29.915Z,95865.66
2022-09-01T05:07:56.437Z,95862.66
2022-09-01T05:10:24.645Z,95858.03
2022-09-01T05:12:51.050Z,95861.13
2022-09-01T05:15:17.487Z,95869.66
2022-09-01T05:17:43.925Z,95877.88
2022-09-01T05:20:10.321Z,95873.38
2022-09-01T05:22:36.768Z,95876.09
2022-09-01T05:25:03.134Z,95878.56
2022-09-01T05:27:29.527Z,95875.56
2022-09-01T05:29:55.960Z,95875.25
2022-09-01T05:32:22.335Z,95887.63
2022-09-01T05:34:48.689Z,95886.13
2022-09-01T05:37:15.229Z,95889.63
2022-09-01T05:39:41.607Z,95893.09
2022-09-01T05:42:08.001Z,95885.47
2022-09-01T05:44:34.444Z,95887.38
2022-09-01T05:47:00.878Z,95894.25
2022-09-01T05:49:27.271Z,95890.03
2022-09-01T05:51:53.685Z,95884.50
2022-09-01T05:54:20.066Z,95880.81
2022-09-01T05:56:46.837Z,95887.81
2022-09-01T05:59:28.560Z,95874.72
2022-09-01T06:01:55.227Z,95889.03
2022-09-01T06:04:21.896Z,95877.75
2022-09-01T06:07:05.864Z,95885.59
2022-09-01T06:09:34.047Z,95882.25
2022-09-01T06:12:00.429Z,95884.63
2022-09-01T06:14:26.826Z,95888.06
2022-09-01T06:16:53.245Z,95895.66
2022-09-01T06:19:19.875Z,95892.44
2022-09-01T06:21:46.261Z,95890.22
2022-09-01T06:24:12.685Z,95891.91
2022-09-01T06:26:39.074Z,95885.47
2022-09-01T06:29:05.454Z,95888.97
2022-09-01T06:31:32.102Z,95898.66
2022-09-01T06:33:58.484Z,95893.28
2022-09-01T06:36:24.850Z,95902.94
2022-09-01T06:38:51.458Z,95903.06
2022-09-01T06:41:17.815Z,95897.25
2022-09-01T06:43:44.182Z,95903.09
2022-09-01T06:46:10.709Z,95898.47
2022-09-01T06:48:37.198Z,95896.94
2022-09-01T06:51:22.158Z,95911.66
2022-09-01T06:53:48.914Z,95909.81
2022-09-01T06:56:15.685Z,95906.81
2022-09-01T06:58:42.050Z,95903.03
2022-09-01T07:01:10.527Z,95901.53
2022-09-01T07:03:38.312Z,95904.66
2022-09-01T07:06:04.764Z,95910.44
2022-09-01T07:08:31.241Z,95911.19
2022-09-01T07:14:15.293Z,95907.22
2022-09-01T07:16:33.366Z,95903.22
2022-09-01T07:19:01.999Z,95911.41
2022-09-01T07:22:06.705Z,95905.28
2022-09-01T07:24:14.821Z,95907.19
2022-09-01T07:26:48.296Z,95909.13
2022-09-01T07:29:14.820Z,95916.75
2022-09-01T07:31:49.498Z,95911.81
2022-09-01T07:38:48.080Z,95920.03
2022-09-01T07:45:29.299Z,95906.78
2022-09-01T07:47:55.838Z,95905.59
2022-09-01T07:50:39.672Z,95915.56
2022-09-01T07:53:07.038Z,95918.59
2022-09-01T07:55:33.652Z,95910.88
2022-09-01T07:58:00.079Z,95922.00
2022-09-01T08:00:28.420Z,95914.72
2022-09-01T08:02:58.459Z,95917.53
2022-09-01T08:05:27.330Z,95921.19
2022-09-01T08:07:53.877Z,95908.59
2022-09-01T08:10:20.509Z,95913.22
2022-09-01T08:12:46.997Z,95905.59
2022-09-01T08:18:09.116Z,95912.88
2022-09-01T08:20:35.684Z,95912.88
2022-09-01T08:23:02.212Z,95909.03
2022-09-01T08:25:28.588Z,95909.03
2022-09-01T08:28:02.693Z,95913.22
2022-09-01T08:30:29.178Z,95922.38
2022-09-01T08:32:55.657Z,95912.19
2022-09-01T08:35:22.161Z,95906.66
2022-09-01T08:37:48.878Z,95913.22
2022-09-01T08:40:15.416Z,95909.13
2022-09-01T08:42:41.883Z,95909.56
2022-09-01T08:45:08.303Z,95917.16
2022-09-01T08:47:44.584Z,95910.31
2022-09-01T08:50:21.177Z,95907.63
2022-09-01T08:52:47.606Z,95911.06
2022-09-01T08:55:14.039Z,95916.31
2022-09-01T08:57:40.463Z,95911.53
2022-09-01T09:00:07.155Z,95905.59
2022-09-01T09:02:33.708Z,95909.56
2022-09-01T09:05:00.208Z,95911.16
2022-09-01T09:07:26.715Z,95913.53
2022-09-01T09:09:54.213Z,95902.34
2022-09-01T09:12:20.891Z,95905.03
2022-09-01T09:14:47.574Z,95911.59
2022-09-01T09:17:15.124Z,95908.16
2022-09-01T09:19:41.547Z,95905.03
2022-09-01T09:22:08.407Z,95910.97
2022-09-01T09:24:39.282Z,95905.06
2022-09-01T09:27:07.091Z,95902.69
2022-09-01T09:29:36.539Z,95902.03
2022-09-01T09:32:03.020Z,95902.03
2022-09-01T09:34:29.477Z,95904.41
2022-09-01T09:36:57.325Z,95903.63
2022-09-01T09:39:23.892Z,95911.25
2022-09-01T09:41:50.675Z,95907.41
2022-09-01T09:44:17.558Z,95911.59
2022-09-01T09:46:46.197Z,95902.03
2022-09-01T09:49:12.740Z,95910.53
2022-09-01T09:51:39.276Z,95904.75
2022-09-01T09:54:05.648Z,95902.34
2022-09-01T09:56:32.079Z,95905.47
2022-09-01T09:58:59.736Z,95903.19
2022-09-01T10:01:26.225Z,95904.72
2022-09-01T10:03:52.783Z,95912.44
2022-09-01T10:06:19.295Z,95907.09
2022-09-01T10:08:46.231Z,95900.50
2022-09-01T10:11:12.891Z,95909.75
2022-09-01T10:13:39.349Z,95906.31
2022-09-01T10:16:09.361Z,95908.81
2022-09-01T10:18:36.950Z,95892.28
2022-09-01T10:21:06.178Z,95887.09
2022-09-01T10:23:33.152Z,95892.16
2022-09-01T10:25:59.611Z,95891.38
2022-09-01T10:28:26.919Z,95894.50
2022-09-01T10:30:53.649Z,95896.03
2022-09-01T10:33:21.905Z,95893.66
2022-09-01T10:35:48.808Z,95893.66
2022-09-01T10:38:15.365Z,95897.09
2022-09-01T10:40:43.280Z,95897.31
2022-09-01T10:43:12.444Z,95884.34
2022-09-01T10:45:39.070Z,95894.31
2022-09-01T10:48:05.561Z,95887.09
2022-09-01T10:50:35.509Z,95899.88
2022-09-01T10:53:02.211Z,95894.50
2022-09-01T10:55:28.686Z,95889.59
2022-09-01T10:57:55.850Z,95893.00
2022-09-01T11:00:37.892Z,95887.63
2022-09-01T11:03:29.837Z,95889.47
2022-09-01T11:05:52.870Z,95885.63
2022-09-01T11:08:20.937Z,95889.41
2022-09-01T11:10:47.394Z,95881.13
2022-09-01T11:13:15.839Z,95882.50
2022-09-01T11:15:42.285Z,95881.75
2022-09-01T11:18:08.698Z,95873.38
2022-09-01T11:20:36.680Z,95880.25
2022-09-01T11:23:03.544Z,95881.00
2022-09-01T11:25:38.768Z,95876.81
2022-09-01T11:28:05.455Z,95885.28
2022-09-01T11:30:31.841Z,95878.31
2022-09-01T11:32:58.257Z,95881.31
2022-09-01T11:35:25.418Z,95893.78
2022-09-01T11:37:51.879Z,95883.88
2022-09-01T11:40:18.816Z,95877.56
2022-09-01T11:42:46.678Z,95877.97
2022-09-01T11:45:15.476Z,95882.16
2022-09-01T11:47:48.453Z,95873.38
2022-09-01T11:50:14.936Z,95880.56
2022-09-01T11:52:41.423Z,95870.59
2022-09-01T11:55:08.025Z,95874.34
2022-09-01T11:57:34.504Z,95868.22
2022-09-01T12:00:00.893Z,95870.69
2022-09-01T12:02:27.652Z,95857.63
2022-09-01T12:04:54.366Z,95860.72
2022-09-01T12:07:20.775Z,95857.72
2022-09-01T12:09:47.481Z,95850.09
2022-09-01T12:12:14.192Z,95854.28
2022-09-01T12:15:04.309Z,95849.66
2022-09-01T12:17:27.151Z,95853.84
2022-09-01T12:19:53.606Z,95848.81
2022-09-01T12:22:20.026Z,95848.81
2022-09-01T12:24:46.513Z,95853.75
2022-09-01T12:27:13.017Z,95855.38
2022-09-01T12:29:40.761Z,95848.63
2022-09-01T12:32:07.329Z,95846.25
2022-09-01T12:34:33.864Z,95827.13
2022-09-01T12:37:00.317Z,95834.88
2022-09-01T12:39:26.772Z,95829.19
2022-09-01T12:41:53.210Z,95835.19
2022-09-01T12:44:19.591Z,95829.38
2022-09-01T12:46:46.642Z,95836.69
2022-09-01T12:51:44.679Z,95832.28
2022-09-01T12:54:11.192Z,95837.88
2022-09-01T12:56:37.610Z,95833.28
2022-09-01T12:59:09.597Z,95830.56
2022-09-01T13:01:40.850Z,95825.75
2022-09-01T13:04:07.486Z,95831.88
2022-09-01T13:06:33.885Z,95822.63
2022-09-01T13:09:00.375Z,95823.69
2022-09-01T13:12:04.576Z,95830.56
2022-09-01T13:14:13.170Z,95829.06
2022-09-01T13:16:39.781Z,95828.66
2022-09-01T13:19:11.571Z,95819.84
2022-09-01T13:24:04.786Z,95822.31
2022-09-01T13:26:32.548Z,95824.66
2022-09-01T13:28:59.136Z,95816.72
2022-09-01T13:31:29.495Z,95809.84
2022-09-01T13:34:21.920Z,95809.09
2022-09-01T13:36:44.836Z,95810.19
2022-09-01T13:39:13.434Z,95804.03
2022-09-01T13:41:39.845Z,95804.03
2022-09-01T13:44:06.380Z,95798.25
2022-09-01T13:46:32.820Z,95800.19
2022-09-01T13:49:02.973Z,95802.34
2022-09-01T13:51:29.867Z,95792.78
2022-09-01T13:53:56.285Z,95796.31
2022-09-01T13:56:22.715Z,95789.88
2022-09-01T13:58:51.149Z,95793.75
2022-09-01T14:01:17.605Z,95787.63
2022-09-01T14:03:44.038Z,95794.91
2022-09-01T14:06:10.455Z,95793.31
2022-09-01T14:08:36.938Z,95786.00
2022-09-01T14:11:03.470Z,95794.47
2022-09-01T14:13:30.205Z,95793.75
2022-09-01T14:15:56.705Z,95796.63
2022-09-01T14:18:23.151Z,95795.38
2022-09-01T14:20:49.728Z,95785.47
2022-09-01T14:23:16.169Z,95779.88
2022-09-01T14:25:42.602Z,95770.00
2022-09-01T14:28:09.113Z,95768.84
2022-09-01T14:30:35.796Z,95761.94
2022-09-01T14:33:02.191Z,95764.94
2022-09-01T14:35:28.702Z,95756.91
2022-09-01T14:37:55.174Z,95762.25
2022-09-01T14:40:21.588Z,95754.56
2022-09-01T14:42:48.053Z,95750.66
2022-09-01T14:45:14.479Z,95759.19
2022-09-01T14:47:41.056Z,95755.84
2022-09-01T14:52:38.812Z,95756.16
2022-09-01T14:55:05.199Z,95754.66
2022-09-01T14:57:37.761Z,95758.84
2022-09-01T15:00:04.981Z,95752.72
2022-09-01T15:02:32.933Z,95761.53
2022-09-01T15:04:59.357Z,95759.25
2022-09-01T15:07:25.870Z,95751.22
2022-09-01T15:09:52.385Z,95755.81
2022-09-01T15:12:18.778Z,95746.38
2022-09-01T15:14:45.170Z,95743.16
2022-09-01T15:17:11.617Z,95735.56
2022-09-01T15:19:38.042Z,95742.84
2022-09-01T15:22:04.485Z,95737.16
2022-09-01T15:24:32.330Z,95735.97
2022-09-01T15:26:58.748Z,95736.84
2022-09-01T15:29:25.210Z,95738.66
2022-09-01T15:31:51.815Z,95742.84
2022-09-01T15:34:18.227Z,95742.84
2022-09-01T15:36:44.615Z,95744.03
2022-09-01T15:39:11.215Z,95741.22
2022-09-01T15:41:37.644Z,95735.75
2022-09-01T15:44:04.024Z,95739.72
2022-09-01T15:46:30.552Z,95731.03
2022-09-01T15:48:57.055Z,95729.22
2022-09-01T15:51:23.447Z,95735.78
2022-09-01T15:53:49.894Z,95737.72
2022-09-01T15:56:16.352Z,95735.78
2022-09-01T15:59:00.366Z,95736.50
2022-09-01T16:01:28.071Z,95739.94
2022-09-01T16:03:54.524Z,95733.81
2022-09-01T16:06:20.925Z,95746.38
2022-09-01T16:08:47.897Z,95745.19
2022-09-01T16:11:14.292Z,95739.31
2022-09-01T16:13:40.744Z,95742.31
2022-09-01T16:16:07.353Z,95739.63
2022-09-01T16:18:33.785Z,95746.63
2022-09-01T16:21:00.179Z,95743.94
2022-09-01T16:23:26.785Z,95738.66
2022-09-01T16:25:53.229Z,95740.63
2022-09-01T16:28:19.626Z,95732.75
2022-09-01T16:30:46.114Z,95728.47
2022-09-01T16:33:12.517Z,95736.72
2022-09-01T16:35:38.891Z,95737.47
2022-09-01T16:38:05.385Z,95735.22
2022-09-01T16:40:31.839Z,95730.16
2022-09-01T16:42:58.297Z,95732.84
2022-09-01T16:45:24.823Z,95729.09
2022-09-01T16:47:52.974Z,95729.84
2022-09-01T16:50:19.470Z,95727.88
2022-09-01T16:52:45.949Z,95727.88
2022-09-01T16:55:12.366Z,95731.66
2022-09-01T16:57:38.837Z,95732.00
2022-09-01T17:00:05.776Z,95725.44
2022-09-01T17:02:32.260Z,95729.63
2022-09-01T17:04:58.722Z,95730.88
2022-09-01T17:07:29.768Z,95731.44
2022-09-01T17:09:56.274Z,95729.41
2022-09-01T17:12:22.736Z,95726.81
2022-09-01T17:14:51.575Z,95729.50
2022-09-01T17:17:17.962Z,95729.50
2022-09-01T17:19:44.386Z,95727.16
2022-09-01T17:22:10.912Z,95726.41
2022-09-01T17:24:37.306Z,95727.91
2022-09-01T17:27:03.910Z,95725.53
2022-09-01T17:29:30.358Z,95722.41
2022-09-01T17:31:56.761Z,95734.53
2022-09-01T17:34:23.210Z,95723.69
2022-09-01T17:36:49.658Z,95724.75
2022-09-01T17:39:16.059Z,95717.25
2022-09-01T17:41:42.462Z,95723.47
2022-09-01T17:44:08.943Z,95723.91
2022-09-01T17:46:35.429Z,95730.06
2022-09-01T17:49:01.901Z,95726.59
2022-09-01T17:51:28.345Z,95728.53
2022-09-01T17:53:54.718Z,95730.06
2022-09-01T17:56:21.244Z,95734.22
2022-09-01T17:58:47.671Z,95732.59
2022-09-01T18:01:14.167Z,95739.13
2022-09-01T18:03:40.604Z,95737.00
2022-09-01T18:06:07.094Z,95739.09
2022-09-01T18:08:33.577Z,95736.81
2022-09-01T18:11:00.141Z,95746.09
2022-09-01T18:13:49.092Z,95749.94
2022-09-01T18:16:13.104Z,95750.56
2022-09-01T18:18:39.619Z,95745.94
2022-09-01T18:21:06.036Z,95752.38
2022-09-01T18:23:32.504Z,95755.81
2022-09-01T18:25:59.053Z,95754.97
2022-09-01T18:28:25.518Z,95749.50
2022-09-01T18:30:52.856Z,95757.56
2022-09-01T18:33:19.555Z,95757.66
2022-09-01T18:35:45.951Z,95751.13
2022-09-01T18:38:12.354Z,95758.25
2022-09-01T18:40:38.890Z,95759.88
2022-09-01T18:43:05.347Z,95752.25
2022-09-01T18:45:31.749Z,95763.00
2022-09-01T18:47:58.318Z,95752.56
2022-09-01T18:50:26.597Z,95761.38
2022-09-01T18:52:53.122Z,95757.50
2022-09-01T18:55:19.600Z,95762.44
2022-09-01T18:57:46.030Z,95761.28
2022-09-01T19:00:18.213Z,95758.13
2022-09-01T19:02:45.991Z,95767.66
2022-09-01T19:05:12.458Z,95765.50
2022-09-01T19:07:38.922Z,95760.75
2022-09-01T19:10:05.343Z,95761.63
2022-09-01T19:12:31.762Z,95761.63
2022-09-01T19:14:58.151Z,95757.13
2022-09-01T19:17:24.570Z,95764.47
2022-09-01T19:19:50.988Z,95768.22
2022-09-01T19:22:17.370Z,95765.06
2022-09-01T19:24:43.767Z,95761.63
2022-09-01T19:27:10.162Z,95763.13
2022-09-01T19:29:36.547Z,95764.63
2022-09-01T19:32:02.972Z,95766.88
2022-09-01T19:34:31.717Z,95770.56
2022-09-01T19:36:58.114Z,95767.38
2022-09-01T19:39:24.515Z,95761.75
2022-09-01T19:41:50.888Z,95768.44
2022-09-01T19:44:17.279Z,95768.00
2022-09-01T19:46:43.746Z,95755.47
2022-09-01T19:49:10.238Z,95758.00
2022-09-01T19:51:36.671Z,95756.94
2022-09-01T19:54:03.148Z,95751.88
2022-09-01T19:56:29.635Z,95753.38
2022-09-01T19:58:56.027Z,95749.50
2022-09-01T20:01:22.567Z,95756.38
2022-09-01T20:03:49.058Z,95756.38
2022-09-01T20:06:15.472Z,95761.13
2022-09-01T20:08:41.901Z,95749.56
2022-09-01T20:11:08.296Z,95755.56
2022-09-01T20:13:34.702Z,95755.72
2022-09-01T20:16:01.161Z,95762.28
2022-09-01T20:18:27.598Z,95755.06
2022-09-01T20:20:53.974Z,95753.13
2022-09-01T20:23:20.364Z,95753.13
2022-09-01T20:25:46.754Z,95757.31
2022-09-01T20:28:13.213Z,95760.78
2022-09-01T20:30:39.670Z,95755.81
2022-09-01T20:33:06.068Z,95756.47
2022-09-01T20:35:35.190Z,95758.72
2022-09-01T20:38:03.970Z,95760.91
2022-09-01T20:40:30.497Z,95764.41
2022-09-01T20:42:56.916Z,95766.28
2022-09-01T20:45:23.438Z,95764.78
2022-09-01T20:47:49.893Z,95765.66
2022-09-01T20:50:16.316Z,95775.66
2022-09-01T20:52:42.731Z,95769.50
2022-09-01T20:55:09.153Z,95774.78
2022-09-01T20:57:35.607Z,95775.06
2022-09-01T21:00:02.116Z,95775.53
2022-09-01T21:02:28.530Z,95776.28
2022-09-01T21:04:55.013Z,95771.66
2022-09-01T21:07:21.423Z,95770.44
2022-09-01T21:09:47.858Z,95773.91
2022-09-01T21:12:14.249Z,95768.63
2022-09-01T21:14:40.669Z,95764.88
2022-09-01T21:17:07.779Z,95762.44
2022-09-01T21:19:34.220Z,95765.38
2022-09-01T21:22:00.664Z,95767.75
2022-09-01T21:24:27.054Z,95770.91
2022-09-01T21:26:53.458Z,95770.91
2022-09-01T21:29:19.896Z,95768.53
2022-09-01T21:31:46.307Z,95772.38
2022-09-01T21:34:16.309Z,95771.22
2022-09-01T21:36:43.413Z,95771.97
2022-09-01T21:39:09.792Z,95763.75
2022-09-01T21:41:36.175Z,95767.94
2022-09-01T21:44:02.680Z,95766.69
2022-09-01T21:46:29.168Z,95770.19
2022-09-01T21:48:55.642Z,95771.00
2022-09-01T21:51:22.039Z,95781.28
2022-09-01T21:53:48.411Z,95779.31
2022-09-01T21:56:14.805Z,95777.19
2022-09-01T21:58:41.215Z,95781.09
2022-09-01T22:01:07.641Z,95782.28
2022-09-01T22:03:36.947Z,95776.91
2022-09-01T22:06:03.501Z,95779.88
2022-09-01T22:08:29.905Z,95768.41
2022-09-01T22:10:56.313Z,95768.41
2022-09-01T22:13:22.856Z,95772.16
2022-09-01T22:15:49.390Z,95772.16
2022-09-01T22:18:15.817Z,95766.47
2022-09-01T22:20:42.349Z,95757.69
2022-09-01T22:23:08.751Z,95760.81
2022-09-01T22:25:35.284Z,95757.06
2022-09-01T22:28:01.742Z,95764.38
2022-09-01T22:30:28.217Z,95763.06
2022-09-01T22:32:54.665Z,95765.75
2022-09-01T22:35:21.124Z,95764.69
2022-09-01T22:37:47.553Z,95776.63
2022-09-01T22:40:14.012Z,95777.38
2022-09-01T22:42:40.479Z,95770.06
2022-09-01T22:45:06.892Z,95770.38
2022-09-01T22:47:37.095Z,95776.81
2022-09-01T22:50:04.974Z,95787.34
2022-09-01T22:52:31.373Z,95778.16
2022-09-01T22:54:57.776Z,95778.03
2022-09-01T22:57:24.186Z,95779.38
2022-09-01T22:59:50.574Z,95777.56
2022-09-01T23:02:17.081Z,95785.75
2022-09-01T23:04:43.563Z,95785.75
2022-09-01T23:07:09.955Z,95791.88
2022-09-01T23:09:36.371Z,95786.22
2022-09-01T23:12:02.773Z,95792.34
2022-09-01T23:14:29.206Z,95786.50
2022-09-01T23:16:55.623Z,95788.31
2022-09-01T23:19:22.103Z,95785.50
2022-09-01T23:21:48.482Z,95782.38
2022-09-01T23:24:14.863Z,95784.59
2022-09-01T23:26:42.920Z,95782.47
2022-09-01T23:29:09.317Z,95785.25
2022-09-01T23:31:35.754Z,95775.47
2022-09-01T23:34:04.103Z,95778.94
2022-09-01T23:36:30.491Z,95777.88
2022-09-01T23:38:56.944Z,95781.00
2022-09-01T23:41:25.218Z,95777.09
2022-09-01T23:43:55.789Z,95784.88
2022-09-01T23:46:22.185Z,95787.56
2022-09-01T23:48:48.578Z,95780.56
2022-09-01T23:51:14.961Z,95773.69
2022-09-01T23:53:41.353Z,95779.06
2022-09-01T23:56:07.752Z,95782.09
2022-09-01T23:58:34.148Z,95771.31
